sensor_id;sensor_type;location;lat;lon;timestamp;P1;durP1;ratioP1;P2;durP2;ratioP2
8540;SDS011;4308;51.294;6.590;2023-05-10T00:02:05;20.37;;;16.23;;
8540;SDS011;4308;51.294;6.590;2023-05-10T00:04:33;18.53;;;16.00;;
8540;SDS011;4308;51.294;6.590;2023-05-10T00:07:00;20.50;;;16.50;;
8540;SDS011;4308;51.294;6.590;2023-05-10T00:09:28;20.90;;;14.00;;
8540;SDS011;4308;51.294;6.590;2023-05-10T00:11:56;15.87;;;13.03;;
8540;SDS011;4308;51.294;6.590;2023-05-10T00:14:23;17.20;;;13.77;;
8540;SDS011;4308;51.294;6.590;2023-05-10T00:16:51;17.80;;;13.63;;
8540;SDS011;4308;51.294;6.590;2023-05-10T00:19:18;20.43;;;15.03;;
8540;SDS011;4308;51.294;6.590;2023-05-10T00:21:46;23.83;;;16.30;;
8540;SDS011;4308;51.294;6.590;2023-05-10T00:24:14;23.43;;;16.80;;
8540;SDS011;4308;51.294;6.590;2023-05-10T00:26:41;21.13;;;15.43;;
8540;SDS011;4308;51.294;6.590;2023-05-10T00:29:09;24.33;;;16.70;;
8540;SDS011;4308;51.294;6.590;2023-05-10T00:31:36;26.07;;;17.63;;
8540;SDS011;4308;51.294;6.590;2023-05-10T00:34:04;21.80;;;15.20;;
8540;SDS011;4308;51.294;6.590;2023-05-10T00:36:31;22.37;;;15.97;;
8540;SDS011;4308;51.294;6.590;2023-05-10T00:38:59;25.63;;;16.43;;
8540;SDS011;4308;51.294;6.590;2023-05-10T00:41:27;22.13;;;15.07;;
8540;SDS011;4308;51.294;6.590;2023-05-10T00:43:54;23.27;;;15.47;;
8540;SDS011;4308;51.294;6.590;2023-05-10T00:46:22;23.87;;;15.90;;
8540;SDS011;4308;51.294;6.590;2023-05-10T00:48:49;26.77;;;16.57;;
8540;SDS011;4308;51.294;6.590;2023-05-10T00:51:17;24.27;;;16.20;;
8540;SDS011;4308;51.294;6.590;2023-05-10T00:53:45;29.20;;;18.00;;
8540;SDS011;4308;51.294;6.590;2023-05-10T00:56:13;30.37;;;18.83;;
8540;SDS011;4308;51.294;6.590;2023-05-10T00:58:40;26.37;;;16.57;;
8540;SDS011;4308;51.294;6.590;2023-05-10T01:01:08;25.30;;;16.23;;
8540;SDS011;4308;51.294;6.590;2023-05-10T01:03:37;20.30;;;14.13;;
8540;SDS011;4308;51.294;6.590;2023-05-10T01:06:05;20.47;;;13.80;;
8540;SDS011;4308;51.294;6.590;2023-05-10T01:08:32;19.70;;;14.33;;
8540;SDS011;4308;51.294;6.590;2023-05-10T01:11:26;21.73;;;14.87;;
8540;SDS011;4308;51.294;6.590;2023-05-10T01:14:43;24.43;;;15.67;;
8540;SDS011;4308;51.294;6.590;2023-05-10T01:17:11;24.00;;;15.73;;
8540;SDS011;4308;51.294;6.590;2023-05-10T01:19:39;22.47;;;15.60;;
8540;SDS011;4308;51.294;6.590;2023-05-10T01:40:43;23.20;;;17.00;;
8540;SDS011;4308;51.294;6.590;2023-05-10T01:43:17;23.57;;;16.70;;
8540;SDS011;4308;51.294;6.590;2023-05-10T01:45:59;22.47;;;15.43;;
8540;SDS011;4308;51.294;6.590;2023-05-10T01:48:28;25.37;;;15.37;;
8540;SDS011;4308;51.294;6.590;2023-05-10T01:50:56;23.23;;;15.30;;
8540;SDS011;4308;51.294;6.590;2023-05-10T01:53:23;19.87;;;13.80;;
8540;SDS011;4308;51.294;6.590;2023-05-10T01:55:52;20.20;;;13.27;;
8540;SDS011;4308;51.294;6.590;2023-05-10T01:58:22;19.07;;;13.60;;
8540;SDS011;4308;51.294;6.590;2023-05-10T02:00:50;17.87;;;12.93;;
8540;SDS011;4308;51.294;6.590;2023-05-10T02:03:23;16.60;;;13.13;;
8540;SDS011;4308;51.294;6.590;2023-05-10T02:05:52;16.63;;;12.67;;
8540;SDS011;4308;51.294;6.590;2023-05-10T02:08:20;18.03;;;12.90;;
8540;SDS011;4308;51.294;6.590;2023-05-10T02:10:52;18.30;;;12.40;;
8540;SDS011;4308;51.294;6.590;2023-05-10T02:13:20;16.13;;;12.43;;
8540;SDS011;4308;51.294;6.590;2023-05-10T02:15:48;17.33;;;12.67;;
8540;SDS011;4308;51.294;6.590;2023-05-10T02:18:17;18.00;;;12.93;;
8540;SDS011;4308;51.294;6.590;2023-05-10T02:20:45;16.63;;;12.43;;
8540;SDS011;4308;51.294;6.590;2023-05-10T02:23:13;16.30;;;11.53;;
8540;SDS011;4308;51.294;6.590;2023-05-10T02:25:41;15.23;;;11.60;;
8540;SDS011;4308;51.294;6.590;2023-05-10T02:28:10;16.17;;;12.17;;
8540;SDS011;4308;51.294;6.590;2023-05-10T02:30:38;13.67;;;10.40;;
8540;SDS011;4308;51.294;6.590;2023-05-10T02:33:07;14.50;;;10.93;;
8540;SDS011;4308;51.294;6.590;2023-05-10T02:35:35;13.10;;;10.77;;
8540;SDS011;4308;51.294;6.590;2023-05-10T02:38:03;14.87;;;11.60;;
8540;SDS011;4308;51.294;6.590;2023-05-10T02:40:31;12.93;;;10.07;;
8540;SDS011;4308;51.294;6.590;2023-05-10T02:42:59;14.43;;;10.23;;
8540;SDS011;4308;51.294;6.590;2023-05-10T02:45:29;15.03;;;10.67;;
8540;SDS011;4308;51.294;6.590;2023-05-10T02:47:57;14.67;;;10.30;;
8540;SDS011;4308;51.294;6.590;2023-05-10T02:50:28;16.20;;;11.87;;
8540;SDS011;4308;51.294;6.590;2023-05-10T02:52:59;13.87;;;10.63;;
8540;SDS011;4308;51.294;6.590;2023-05-10T02:55:28;13.10;;;10.03;;
8540;SDS011;4308;51.294;6.590;2023-05-10T02:57:58;14.83;;;11.43;;
8540;SDS011;4308;51.294;6.590;2023-05-10T03:00:27;13.70;;;10.57;;
8540;SDS011;4308;51.294;6.590;2023-05-10T03:02:54;13.67;;;10.67;;
8540;SDS011;4308;51.294;6.590;2023-05-10T03:05:22;14.13;;;10.70;;
8540;SDS011;4308;51.294;6.590;2023-05-10T03:07:50;12.60;;;10.50;;
8540;SDS011;4308;51.294;6.590;2023-05-10T03:10:18;13.87;;;11.20;;
8540;SDS011;4308;51.294;6.590;2023-05-10T03:21:07;15.33;;;11.93;;
8540;SDS011;4308;51.294;6.590;2023-05-10T03:23:35;15.43;;;11.27;;
8540;SDS011;4308;51.294;6.590;2023-05-10T03:26:07;15.47;;;12.00;;
8540;SDS011;4308;51.294;6.590;2023-05-10T03:28:35;14.10;;;11.70;;
8540;SDS011;4308;51.294;6.590;2023-05-10T03:31:04;15.37;;;11.47;;
8540;SDS011;4308;51.294;6.590;2023-05-10T03:33:32;16.50;;;12.00;;
8540;SDS011;4308;51.294;6.590;2023-05-10T03:35:59;15.60;;;12.07;;
8540;SDS011;4308;51.294;6.590;2023-05-10T03:38:27;16.73;;;12.73;;
8540;SDS011;4308;51.294;6.590;2023-05-10T03:40:56;18.83;;;13.60;;
8540;SDS011;4308;51.294;6.590;2023-05-10T03:43:24;18.80;;;13.43;;
8540;SDS011;4308;51.294;6.590;2023-05-10T03:45:51;18.63;;;14.37;;
8540;SDS011;4308;51.294;6.590;2023-05-10T03:48:19;21.13;;;14.23;;
8540;SDS011;4308;51.294;6.590;2023-05-10T03:50:46;23.53;;;15.70;;
8540;SDS011;4308;51.294;6.590;2023-05-10T03:53:14;29.60;;;18.20;;
8540;SDS011;4308;51.294;6.590;2023-05-10T03:55:42;29.20;;;18.03;;
8540;SDS011;4308;51.294;6.590;2023-05-10T03:58:12;29.37;;;19.73;;
8540;SDS011;4308;51.294;6.590;2023-05-10T04:00:40;30.60;;;19.80;;
8540;SDS011;4308;51.294;6.590;2023-05-10T04:03:07;29.57;;;19.93;;
8540;SDS011;4308;51.294;6.590;2023-05-10T04:05:36;32.67;;;19.87;;
8540;SDS011;4308;51.294;6.590;2023-05-10T04:08:03;29.50;;;20.93;;
8540;SDS011;4308;51.294;6.590;2023-05-10T04:10:31;35.37;;;21.63;;
8540;SDS011;4308;51.294;6.590;2023-05-10T04:13:00;34.60;;;21.27;;
8540;SDS011;4308;51.294;6.590;2023-05-10T04:15:27;34.13;;;20.83;;
8540;SDS011;4308;51.294;6.590;2023-05-10T04:17:55;36.27;;;23.27;;
8540;SDS011;4308;51.294;6.590;2023-05-10T04:20:23;34.23;;;22.27;;
8540;SDS011;4308;51.294;6.590;2023-05-10T04:22:50;37.30;;;23.53;;
8540;SDS011;4308;51.294;6.590;2023-05-10T04:25:18;34.97;;;22.23;;
8540;SDS011;4308;51.294;6.590;2023-05-10T04:27:45;37.27;;;23.40;;
8540;SDS011;4308;51.294;6.590;2023-05-10T04:30:13;34.20;;;22.27;;
8540;SDS011;4308;51.294;6.590;2023-05-10T04:32:41;33.67;;;22.13;;
8540;SDS011;4308;51.294;6.590;2023-05-10T04:35:08;38.20;;;23.57;;
8540;SDS011;4308;51.294;6.590;2023-05-10T04:37:39;118.77;;;43.07;;
8540;SDS011;4308;51.294;6.590;2023-05-10T04:40:06;46.10;;;25.63;;
8540;SDS011;4308;51.294;6.590;2023-05-10T04:42:34;45.23;;;24.70;;
8540;SDS011;4308;51.294;6.590;2023-05-10T04:45:02;33.83;;;22.07;;
8540;SDS011;4308;51.294;6.590;2023-05-10T04:47:29;34.73;;;21.33;;
8540;SDS011;4308;51.294;6.590;2023-05-10T04:49:57;35.40;;;22.57;;
8540;SDS011;4308;51.294;6.590;2023-05-10T04:52:25;31.80;;;21.97;;
8540;SDS011;4308;51.294;6.590;2023-05-10T04:54:52;36.43;;;23.13;;
8540;SDS011;4308;51.294;6.590;2023-05-10T04:57:20;35.27;;;23.67;;
8540;SDS011;4308;51.294;6.590;2023-05-10T04:59:47;36.83;;;25.17;;
8540;SDS011;4308;51.294;6.590;2023-05-10T05:02:16;36.13;;;24.43;;
8540;SDS011;4308;51.294;6.590;2023-05-10T05:04:43;32.20;;;23.33;;
8540;SDS011;4308;51.294;6.590;2023-05-10T05:07:11;37.47;;;25.87;;
8540;SDS011;4308;51.294;6.590;2023-05-10T05:09:38;37.47;;;26.47;;
8540;SDS011;4308;51.294;6.590;2023-05-10T05:12:06;39.00;;;26.03;;
8540;SDS011;4308;51.294;6.590;2023-05-10T05:14:33;37.43;;;26.50;;
8540;SDS011;4308;51.294;6.590;2023-05-10T05:17:01;40.97;;;26.53;;
8540;SDS011;4308;51.294;6.590;2023-05-10T05:19:30;37.07;;;26.10;;
8540;SDS011;4308;51.294;6.590;2023-05-10T05:21:58;41.97;;;25.93;;
8540;SDS011;4308;51.294;6.590;2023-05-10T05:24:25;39.80;;;26.50;;
8540;SDS011;4308;51.294;6.590;2023-05-10T05:26:53;40.90;;;25.97;;
8540;SDS011;4308;51.294;6.590;2023-05-10T05:29:20;35.17;;;24.90;;
8540;SDS011;4308;51.294;6.590;2023-05-10T05:31:48;31.53;;;22.77;;
8540;SDS011;4308;51.294;6.590;2023-05-10T05:34:15;32.77;;;22.97;;
8540;SDS011;4308;51.294;6.590;2023-05-10T05:36:43;36.80;;;24.03;;
8540;SDS011;4308;51.294;6.590;2023-05-10T05:39:11;36.77;;;21.77;;
8540;SDS011;4308;51.294;6.590;2023-05-10T05:41:38;36.97;;;23.07;;
8540;SDS011;4308;51.294;6.590;2023-05-10T05:44:06;38.60;;;23.03;;
8540;SDS011;4308;51.294;6.590;2023-05-10T05:46:33;38.17;;;22.93;;
8540;SDS011;4308;51.294;6.590;2023-05-10T05:49:02;36.77;;;23.27;;
8540;SDS011;4308;51.294;6.590;2023-05-10T05:51:30;39.60;;;23.37;;
8540;SDS011;4308;51.294;6.590;2023-05-10T05:53:57;38.83;;;23.60;;
8540;SDS011;4308;51.294;6.590;2023-05-10T05:56:25;39.77;;;25.07;;
8540;SDS011;4308;51.294;6.590;2023-05-10T05:58:53;44.30;;;25.00;;
8540;SDS011;4308;51.294;6.590;2023-05-10T06:01:20;44.30;;;25.63;;
8540;SDS011;4308;51.294;6.590;2023-05-10T06:03:48;54.23;;;29.43;;
8540;SDS011;4308;51.294;6.590;2023-05-10T06:06:19;46.87;;;27.67;;
8540;SDS011;4308;51.294;6.590;2023-05-10T06:08:46;54.00;;;27.63;;
8540;SDS011;4308;51.294;6.590;2023-05-10T06:11:14;48.50;;;28.37;;
8540;SDS011;4308;51.294;6.590;2023-05-10T06:13:41;52.97;;;28.00;;
8540;SDS011;4308;51.294;6.590;2023-05-10T06:16:09;57.83;;;29.67;;
8540;SDS011;4308;51.294;6.590;2023-05-10T06:18:36;59.37;;;29.97;;
8540;SDS011;4308;51.294;6.590;2023-05-10T06:21:04;63.57;;;30.70;;
8540;SDS011;4308;51.294;6.590;2023-05-10T06:23:32;55.53;;;29.47;;
8540;SDS011;4308;51.294;6.590;2023-05-10T06:25:59;52.17;;;29.00;;
8540;SDS011;4308;51.294;6.590;2023-05-10T06:28:27;51.23;;;28.40;;
8540;SDS011;4308;51.294;6.590;2023-05-10T06:30:54;51.77;;;28.30;;
8540;SDS011;4308;51.294;6.590;2023-05-10T06:33:22;49.30;;;27.00;;
8540;SDS011;4308;51.294;6.590;2023-05-10T06:35:49;50.10;;;27.60;;
8540;SDS011;4308;51.294;6.590;2023-05-10T06:38:17;50.70;;;29.13;;
8540;SDS011;4308;51.294;6.590;2023-05-10T06:40:44;53.50;;;28.47;;
8540;SDS011;4308;51.294;6.590;2023-05-10T06:43:12;44.30;;;26.53;;
8540;SDS011;4308;51.294;6.590;2023-05-10T06:45:40;49.77;;;28.20;;
8540;SDS011;4308;51.294;6.590;2023-05-10T06:48:10;49.23;;;26.83;;
8540;SDS011;4308;51.294;6.590;2023-05-10T06:50:38;40.07;;;24.97;;
8540;SDS011;4308;51.294;6.590;2023-05-10T06:53:06;42.77;;;25.80;;
8540;SDS011;4308;51.294;6.590;2023-05-10T06:55:33;37.60;;;23.27;;
8540;SDS011;4308;51.294;6.590;2023-05-10T06:58:01;38.43;;;22.60;;
8540;SDS011;4308;51.294;6.590;2023-05-10T07:00:29;36.73;;;24.13;;
8540;SDS011;4308;51.294;6.590;2023-05-10T07:02:56;38.30;;;23.10;;
8540;SDS011;4308;51.294;6.590;2023-05-10T07:05:24;37.03;;;22.43;;
8540;SDS011;4308;51.294;6.590;2023-05-10T07:07:52;31.97;;;21.53;;
8540;SDS011;4308;51.294;6.590;2023-05-10T07:10:19;30.60;;;20.53;;
8540;SDS011;4308;51.294;6.590;2023-05-10T07:12:47;30.90;;;21.00;;
8540;SDS011;4308;51.294;6.590;2023-05-10T07:15:14;31.17;;;21.67;;
8540;SDS011;4308;51.294;6.590;2023-05-10T07:17:43;39.83;;;24.37;;
8540;SDS011;4308;51.294;6.590;2023-05-10T07:20:11;36.93;;;22.57;;
8540;SDS011;4308;51.294;6.590;2023-05-10T07:22:39;43.60;;;26.20;;
8540;SDS011;4308;51.294;6.590;2023-05-10T07:25:07;40.87;;;24.83;;
8540;SDS011;4308;51.294;6.590;2023-05-10T07:27:34;41.10;;;26.07;;
8540;SDS011;4308;51.294;6.590;2023-05-10T07:30:02;41.33;;;26.53;;
8540;SDS011;4308;51.294;6.590;2023-05-10T07:32:30;41.37;;;26.47;;
8540;SDS011;4308;51.294;6.590;2023-05-10T07:34:58;51.43;;;29.27;;
8540;SDS011;4308;51.294;6.590;2023-05-10T07:37:25;49.63;;;29.20;;
8540;SDS011;4308;51.294;6.590;2023-05-10T07:39:54;48.13;;;29.43;;
8540;SDS011;4308;51.294;6.590;2023-05-10T07:42:22;49.57;;;29.87;;
8540;SDS011;4308;51.294;6.590;2023-05-10T07:44:49;48.13;;;28.63;;
8540;SDS011;4308;51.294;6.590;2023-05-10T07:47:17;46.27;;;29.10;;
8540;SDS011;4308;51.294;6.590;2023-05-10T07:49:44;47.33;;;28.53;;
8540;SDS011;4308;51.294;6.590;2023-05-10T07:52:12;47.70;;;29.23;;
8540;SDS011;4308;51.294;6.590;2023-05-10T07:54:40;46.63;;;28.27;;
8540;SDS011;4308;51.294;6.590;2023-05-10T07:57:07;46.73;;;28.10;;
8540;SDS011;4308;51.294;6.590;2023-05-10T07:59:35;44.53;;;28.87;;
8540;SDS011;4308;51.294;6.590;2023-05-10T08:02:02;41.47;;;26.73;;
8540;SDS011;4308;51.294;6.590;2023-05-10T08:04:30;44.13;;;27.70;;
8540;SDS011;4308;51.294;6.590;2023-05-10T08:06:58;46.33;;;28.53;;
8540;SDS011;4308;51.294;6.590;2023-05-10T08:09:25;48.50;;;29.73;;
8540;SDS011;4308;51.294;6.590;2023-05-10T08:11:53;42.00;;;28.60;;
8540;SDS011;4308;51.294;6.590;2023-05-10T08:14:20;41.13;;;27.97;;
8540;SDS011;4308;51.294;6.590;2023-05-10T08:16:48;37.83;;;26.33;;
8540;SDS011;4308;51.294;6.590;2023-05-10T08:19:16;41.20;;;27.53;;
8540;SDS011;4308;51.294;6.590;2023-05-10T08:21:44;42.80;;;25.60;;
8540;SDS011;4308;51.294;6.590;2023-05-10T08:24:14;39.17;;;25.30;;
8540;SDS011;4308;51.294;6.590;2023-05-10T08:26:42;32.97;;;24.33;;
8540;SDS011;4308;51.294;6.590;2023-05-10T08:29:09;33.77;;;23.93;;
8540;SDS011;4308;51.294;6.590;2023-05-10T08:31:37;35.90;;;23.40;;
8540;SDS011;4308;51.294;6.590;2023-05-10T08:34:04;35.60;;;22.63;;
8540;SDS011;4308;51.294;6.590;2023-05-10T08:36:32;31.47;;;22.17;;
8540;SDS011;4308;51.294;6.590;2023-05-10T08:39:00;27.83;;;20.37;;
8540;SDS011;4308;51.294;6.590;2023-05-10T08:41:27;26.63;;;20.73;;
8540;SDS011;4308;51.294;6.590;2023-05-10T08:43:55;29.57;;;21.10;;
8540;SDS011;4308;51.294;6.590;2023-05-10T08:46:25;28.87;;;21.20;;
8540;SDS011;4308;51.294;6.590;2023-05-10T08:48:53;27.17;;;19.50;;
8540;SDS011;4308;51.294;6.590;2023-05-10T08:51:22;28.20;;;21.13;;
8540;SDS011;4308;51.294;6.590;2023-05-10T08:53:50;26.80;;;20.13;;
8540;SDS011;4308;51.294;6.590;2023-05-10T08:56:17;28.43;;;20.70;;
8540;SDS011;4308;51.294;6.590;2023-05-10T08:58:45;27.80;;;20.43;;
8540;SDS011;4308;51.294;6.590;2023-05-10T09:01:13;28.57;;;20.23;;
8540;SDS011;4308;51.294;6.590;2023-05-10T09:03:40;26.77;;;20.10;;
8540;SDS011;4308;51.294;6.590;2023-05-10T09:06:08;25.57;;;18.67;;
8540;SDS011;4308;51.294;6.590;2023-05-10T09:08:36;24.47;;;19.07;;
8540;SDS011;4308;51.294;6.590;2023-05-10T09:11:03;22.80;;;16.77;;
8540;SDS011;4308;51.294;6.590;2023-05-10T09:13:31;20.00;;;15.30;;
8540;SDS011;4308;51.294;6.590;2023-05-10T09:15:59;22.90;;;15.40;;
8540;SDS011;4308;51.294;6.590;2023-05-10T09:18:45;23.63;;;15.73;;
8540;SDS011;4308;51.294;6.590;2023-05-10T09:21:13;20.93;;;15.10;;
8540;SDS011;4308;51.294;6.590;2023-05-10T09:23:47;19.87;;;15.10;;
8540;SDS011;4308;51.294;6.590;2023-05-10T09:26:15;21.80;;;15.40;;
8540;SDS011;4308;51.294;6.590;2023-05-10T09:28:52;22.83;;;15.43;;
8540;SDS011;4308;51.294;6.590;2023-05-10T09:31:20;18.97;;;15.40;;
8540;SDS011;4308;51.294;6.590;2023-05-10T09:33:48;19.53;;;15.30;;
8540;SDS011;4308;51.294;6.590;2023-05-10T09:36:16;20.30;;;15.37;;
8540;SDS011;4308;51.294;6.590;2023-05-10T09:38:48;24.73;;;16.93;;
8540;SDS011;4308;51.294;6.590;2023-05-10T09:41:20;23.73;;;16.97;;
8540;SDS011;4308;51.294;6.590;2023-05-10T09:43:47;25.40;;;16.73;;
8540;SDS011;4308;51.294;6.590;2023-05-10T09:46:15;23.37;;;18.03;;
8540;SDS011;4308;51.294;6.590;2023-05-10T09:48:46;22.10;;;16.73;;
8540;SDS011;4308;51.294;6.590;2023-05-10T09:51:21;23.70;;;17.97;;
8540;SDS011;4308;51.294;6.590;2023-05-10T09:54:08;25.33;;;17.47;;
8540;SDS011;4308;51.294;6.590;2023-05-10T09:56:36;24.90;;;17.67;;
8540;SDS011;4308;51.294;6.590;2023-05-10T09:59:04;23.07;;;17.00;;
8540;SDS011;4308;51.294;6.590;2023-05-10T10:01:33;21.33;;;17.33;;
8540;SDS011;4308;51.294;6.590;2023-05-10T10:04:04;22.33;;;17.37;;
8540;SDS011;4308;51.294;6.590;2023-05-10T10:06:36;22.17;;;16.40;;
8540;SDS011;4308;51.294;6.590;2023-05-10T10:09:04;24.00;;;16.97;;
8540;SDS011;4308;51.294;6.590;2023-05-10T10:11:33;22.90;;;15.83;;
8540;SDS011;4308;51.294;6.590;2023-05-10T10:14:01;19.03;;;15.03;;
8540;SDS011;4308;51.294;6.590;2023-05-10T10:16:29;22.57;;;15.83;;
8540;SDS011;4308;51.294;6.590;2023-05-10T10:18:57;23.43;;;16.13;;
8540;SDS011;4308;51.294;6.590;2023-05-10T10:21:25;18.63;;;15.77;;
8540;SDS011;4308;51.294;6.590;2023-05-10T10:23:52;19.53;;;15.40;;
8540;SDS011;4308;51.294;6.590;2023-05-10T10:26:20;21.13;;;16.40;;
8540;SDS011;4308;51.294;6.590;2023-05-10T10:32:03;19.97;;;16.07;;
8540;SDS011;4308;51.294;6.590;2023-05-10T10:34:05;18.50;;;14.80;;
8540;SDS011;4308;51.294;6.590;2023-05-10T10:36:46;21.13;;;16.20;;
8540;SDS011;4308;51.294;6.590;2023-05-10T10:39:14;22.17;;;15.47;;
8540;SDS011;4308;51.294;6.590;2023-05-10T10:49:42;26.63;;;18.07;;
8540;SDS011;4308;51.294;6.590;2023-05-10T10:52:27;22.77;;;16.30;;
8540;SDS011;4308;51.294;6.590;2023-05-10T10:57:25;20.37;;;15.53;;
8540;SDS011;4308;51.294;6.590;2023-05-10T11:00:17;21.90;;;17.13;;
8540;SDS011;4308;51.294;6.590;2023-05-10T11:02:44;21.17;;;17.97;;
8540;SDS011;4308;51.294;6.590;2023-05-10T11:05:25;24.90;;;19.67;;
8540;SDS011;4308;51.294;6.590;2023-05-10T11:07:53;24.90;;;18.43;;
8540;SDS011;4308;51.294;6.590;2023-05-10T11:10:22;23.37;;;17.77;;
8540;SDS011;4308;51.294;6.590;2023-05-10T11:12:54;22.50;;;17.77;;
8540;SDS011;4308;51.294;6.590;2023-05-10T11:15:31;20.03;;;17.13;;
8540;SDS011;4308;51.294;6.590;2023-05-10T11:17:59;19.77;;;16.83;;
8540;SDS011;4308;51.294;6.590;2023-05-10T11:20:27;19.67;;;16.37;;
8540;SDS011;4308;51.294;6.590;2023-05-10T11:22:55;21.30;;;16.77;;
8540;SDS011;4308;51.294;6.590;2023-05-10T11:25:28;19.93;;;15.93;;
8540;SDS011;4308;51.294;6.590;2023-05-10T11:27:56;19.30;;;17.13;;
8540;SDS011;4308;51.294;6.590;2023-05-10T11:30:23;20.90;;;16.07;;
8540;SDS011;4308;51.294;6.590;2023-05-10T11:32:51;19.80;;;17.37;;
8540;SDS011;4308;51.294;6.590;2023-05-10T11:35:19;23.60;;;17.40;;
8540;SDS011;4308;51.294;6.590;2023-05-10T11:37:47;20.73;;;16.40;;
8540;SDS011;4308;51.294;6.590;2023-05-10T11:40:15;17.80;;;15.73;;
8540;SDS011;4308;51.294;6.590;2023-05-10T11:42:43;21.47;;;15.50;;
8540;SDS011;4308;51.294;6.590;2023-05-10T11:45:11;16.67;;;14.40;;
8540;SDS011;4308;51.294;6.590;2023-05-10T11:47:38;17.57;;;15.27;;
8540;SDS011;4308;51.294;6.590;2023-05-10T11:50:09;15.40;;;13.80;;
8540;SDS011;4308;51.294;6.590;2023-05-10T11:52:36;15.67;;;13.83;;
8540;SDS011;4308;51.294;6.590;2023-05-10T11:55:04;16.53;;;13.70;;
8540;SDS011;4308;51.294;6.590;2023-05-10T11:57:32;14.63;;;13.07;;
8540;SDS011;4308;51.294;6.590;2023-05-10T12:00:00;14.50;;;12.67;;
8540;SDS011;4308;51.294;6.590;2023-05-10T12:02:28;20.00;;;14.23;;
8540;SDS011;4308;51.294;6.590;2023-05-10T12:04:56;16.30;;;13.63;;
8540;SDS011;4308;51.294;6.590;2023-05-10T12:07:25;18.83;;;13.93;;
8540;SDS011;4308;51.294;6.590;2023-05-10T12:12:51;16.30;;;14.20;;
8540;SDS011;4308;51.294;6.590;2023-05-10T12:15:23;16.20;;;14.50;;
8540;SDS011;4308;51.294;6.590;2023-05-10T12:17:51;18.20;;;13.77;;
8540;SDS011;4308;51.294;6.590;2023-05-10T12:22:47;17.17;;;15.40;;
8540;SDS011;4308;51.294;6.590;2023-05-10T12:25:17;17.83;;;15.77;;
8540;SDS011;4308;51.294;6.590;2023-05-10T12:27:51;18.37;;;16.37;;
8540;SDS011;4308;51.294;6.590;2023-05-10T12:30:20;19.67;;;16.07;;
8540;SDS011;4308;51.294;6.590;2023-05-10T12:32:47;18.03;;;16.10;;
8540;SDS011;4308;51.294;6.590;2023-05-10T12:35:15;18.70;;;16.40;;
8540;SDS011;4308;51.294;6.590;2023-05-10T12:37:43;18.53;;;16.63;;
8540;SDS011;4308;51.294;6.590;2023-05-10T12:40:14;19.37;;;17.27;;
8540;SDS011;4308;51.294;6.590;2023-05-10T12:42:42;20.83;;;18.53;;
8540;SDS011;4308;51.294;6.590;2023-05-10T12:45:10;19.83;;;17.27;;
8540;SDS011;4308;51.294;6.590;2023-05-10T12:47:38;21.60;;;18.00;;
8540;SDS011;4308;51.294;6.590;2023-05-10T12:50:09;20.87;;;17.00;;
8540;SDS011;4308;51.294;6.590;2023-05-10T12:52:37;20.40;;;16.00;;
8540;SDS011;4308;51.294;6.590;2023-05-10T12:55:05;18.40;;;16.53;;
8540;SDS011;4308;51.294;6.590;2023-05-10T12:57:32;19.27;;;17.27;;
8540;SDS011;4308;51.294;6.590;2023-05-10T13:00:00;21.07;;;17.63;;
8540;SDS011;4308;51.294;6.590;2023-05-10T13:02:28;19.47;;;17.47;;
8540;SDS011;4308;51.294;6.590;2023-05-10T13:04:55;20.87;;;18.67;;
8540;SDS011;4308;51.294;6.590;2023-05-10T13:07:23;22.67;;;19.57;;
8540;SDS011;4308;51.294;6.590;2023-05-10T13:09:50;23.13;;;20.73;;
8540;SDS011;4308;51.294;6.590;2023-05-10T13:12:18;21.97;;;19.53;;
8540;SDS011;4308;51.294;6.590;2023-05-10T13:14:46;22.77;;;20.17;;
8540;SDS011;4308;51.294;6.590;2023-05-10T13:17:13;23.73;;;21.10;;
8540;SDS011;4308;51.294;6.590;2023-05-10T13:19:41;23.07;;;20.67;;
8540;SDS011;4308;51.294;6.590;2023-05-10T13:22:09;23.80;;;19.77;;
8540;SDS011;4308;51.294;6.590;2023-05-10T13:24:36;26.60;;;20.67;;
8540;SDS011;4308;51.294;6.590;2023-05-10T13:27:04;21.70;;;19.37;;
8540;SDS011;4308;51.294;6.590;2023-05-10T13:29:31;25.57;;;21.17;;
8540;SDS011;4308;51.294;6.590;2023-05-10T13:31:59;22.57;;;19.83;;
8540;SDS011;4308;51.294;6.590;2023-05-10T13:34:27;21.90;;;19.13;;
8540;SDS011;4308;51.294;6.590;2023-05-10T13:36:55;21.87;;;19.40;;
8540;SDS011;4308;51.294;6.590;2023-05-10T13:39:22;21.00;;;18.70;;
8540;SDS011;4308;51.294;6.590;2023-05-10T13:41:50;21.50;;;18.27;;
8540;SDS011;4308;51.294;6.590;2023-05-10T13:44:20;20.70;;;18.50;;
8540;SDS011;4308;51.294;6.590;2023-05-10T13:46:47;19.67;;;17.43;;
8540;SDS011;4308;51.294;6.590;2023-05-10T13:49:15;20.10;;;17.93;;
8540;SDS011;4308;51.294;6.590;2023-05-10T13:51:43;21.03;;;17.83;;
8540;SDS011;4308;51.294;6.590;2023-05-10T13:54:10;20.83;;;18.10;;
8540;SDS011;4308;51.294;6.590;2023-05-10T13:56:39;19.67;;;17.57;;
8540;SDS011;4308;51.294;6.590;2023-05-10T13:59:07;19.27;;;16.63;;
8540;SDS011;4308;51.294;6.590;2023-05-10T14:01:35;18.37;;;16.47;;
8540;SDS011;4308;51.294;6.590;2023-05-10T14:04:03;17.00;;;15.20;;
8540;SDS011;4308;51.294;6.590;2023-05-10T14:06:30;15.57;;;13.87;;
8540;SDS011;4308;51.294;6.590;2023-05-10T14:08:58;14.77;;;12.73;;
8540;SDS011;4308;51.294;6.590;2023-05-10T14:11:25;14.43;;;12.83;;
8540;SDS011;4308;51.294;6.590;2023-05-10T14:13:53;12.27;;;11.07;;
8540;SDS011;4308;51.294;6.590;2023-05-10T14:16:21;12.77;;;11.07;;
8540;SDS011;4308;51.294;6.590;2023-05-10T14:18:48;12.60;;;11.23;;
8540;SDS011;4308;51.294;6.590;2023-05-10T14:21:16;11.60;;;10.33;;
8540;SDS011;4308;51.294;6.590;2023-05-10T14:23:46;13.70;;;11.90;;
8540;SDS011;4308;51.294;6.590;2023-05-10T14:26:14;13.73;;;11.50;;
8540;SDS011;4308;51.294;6.590;2023-05-10T14:28:41;12.83;;;11.40;;
8540;SDS011;4308;51.294;6.590;2023-05-10T14:31:09;13.10;;;10.87;;
8540;SDS011;4308;51.294;6.590;2023-05-10T14:33:39;11.77;;;10.30;;
8540;SDS011;4308;51.294;6.590;2023-05-10T14:36:07;11.93;;;10.73;;
8540;SDS011;4308;51.294;6.590;2023-05-10T14:38:35;11.57;;;10.37;;
8540;SDS011;4308;51.294;6.590;2023-05-10T14:41:03;11.67;;;10.47;;
8540;SDS011;4308;51.294;6.590;2023-05-10T14:43:30;11.97;;;10.00;;
8540;SDS011;4308;51.294;6.590;2023-05-10T14:45:58;10.73;;;9.60;;
8540;SDS011;4308;51.294;6.590;2023-05-10T14:48:26;10.23;;;9.00;;
8540;SDS011;4308;51.294;6.590;2023-05-10T14:50:53;10.20;;;9.03;;
8540;SDS011;4308;51.294;6.590;2023-05-10T14:53:22;11.67;;;9.47;;
8540;SDS011;4308;51.294;6.590;2023-05-10T14:55:50;9.90;;;8.87;;
8540;SDS011;4308;51.294;6.590;2023-05-10T14:58:18;9.63;;;8.53;;
8540;SDS011;4308;51.294;6.590;2023-05-10T15:00:45;10.20;;;8.60;;
8540;SDS011;4308;51.294;6.590;2023-05-10T15:03:14;12.27;;;8.23;;
8540;SDS011;4308;51.294;6.590;2023-05-10T15:05:42;9.40;;;8.50;;
8540;SDS011;4308;51.294;6.590;2023-05-10T15:08:09;9.13;;;8.23;;
8540;SDS011;4308;51.294;6.590;2023-05-10T15:10:38;11.43;;;9.57;;
8540;SDS011;4308;51.294;6.590;2023-05-10T15:13:05;10.13;;;9.13;;
8540;SDS011;4308;51.294;6.590;2023-05-10T15:15:33;11.97;;;10.87;;
8540;SDS011;4308;51.294;6.590;2023-05-10T15:18:01;10.07;;;9.00;;
8540;SDS011;4308;51.294;6.590;2023-05-10T15:20:29;12.37;;;10.70;;
8540;SDS011;4308;51.294;6.590;2023-05-10T15:22:59;13.63;;;11.17;;
8540;SDS011;4308;51.294;6.590;2023-05-10T15:25:27;12.67;;;11.40;;
8540;SDS011;4308;51.294;6.590;2023-05-10T15:27:55;12.80;;;11.27;;
8540;SDS011;4308;51.294;6.590;2023-05-10T15:30:23;8.23;;;7.43;;
8540;SDS011;4308;51.294;6.590;2023-05-10T15:32:51;6.77;;;4.73;;
8540;SDS011;4308;51.294;6.590;2023-05-10T15:35:18;6.47;;;5.07;;
8540;SDS011;4308;51.294;6.590;2023-05-10T15:37:47;6.20;;;4.07;;
8540;SDS011;4308;51.294;6.590;2023-05-10T15:40:15;4.43;;;4.03;;
8540;SDS011;4308;51.294;6.590;2023-05-10T15:42:43;5.40;;;4.13;;